Time;durP1;ratioP1;P1;durP2;ratioP2;P2;SDS_P1;SDS_P2;PMS_P1;PMS_P2;Temp;Humidity;BMP_temperature;BMP_pressure;BME280_temperature;BME280_humidity;BME280_pressure;Samples;Min_cycle;Max_cycle;Signal;HPM_P1;HPM_P2
2023/06/24 00:01:14;;;;;;;;;;;;;;;24.27;35.23;97482.31;4252102;27;5632;-68
2023/06/24 00:03:17;;;;;;;;;;;;;;;24.24;34.90;97465.84;4246980;27;5769;-69
2023/06/24 00:05:22;;;;;;;;;;;;;;;24.24;35.13;97466.66;4253371;27;6513;-67
2023/06/24 00:07:26;;;;;;;;;;;;;;;24.25;34.94;97470.16;4256569;27;5735;-65
2023/06/24 00:09:29;;;;;;;;;;;;;;;24.24;35.06;97472.03;4250715;27;5697;-65
2023/06/24 00:11:32;;;;;;;;;;;;;;;24.22;34.89;97468.78;4253980;27;5722;-65
2023/06/24 00:13:35;;;;;;;;;;;;;;;24.19;35.31;97477.41;4253089;27;5660;-66
2023/06/24 00:15:42;;;;;;;;;;;;;;;24.19;35.05;97469.31;4252515;27;5834;-66
2023/06/24 00:17:45;;;;;;;;;;;;;;;24.21;35.04;97474.44;4252157;27;5621;-66
2023/06/24 00:19:48;;;;;;;;;;;;;;;24.19;35.23;97461.19;4251928;27;5692;-66
2023/06/24 00:21:53;;;;;;;;;;;;;;;24.17;35.41;97466.06;4261033;27;5836;-65
2023/06/24 00:23:57;;;;;;;;;;;;;;;24.14;35.41;97461.19;4263647;27;5607;-66
2023/06/24 00:26:00;;;;;;;;;;;;;;;24.10;34.87;97460.06;4251696;27;5656;-65
2023/06/24 00:28:03;;;;;;;;;;;;;;;24.09;35.01;97459.25;4251992;27;5743;-65
2023/06/24 00:30:07;;;;;;;;;;;;;;;24.10;35.16;97465.47;4251778;27;5625;-66
2023/06/24 00:32:10;;;;;;;;;;;;;;;24.12;34.95;97468.72;4251982;27;5782;-64
2023/06/24 00:34:13;;;;;;;;;;;;;;;24.10;35.25;97458.19;4245629;27;5075;-64
2023/06/24 00:36:16;;;;;;;;;;;;;;;24.07;34.88;97474.94;4247398;27;5728;-64
2023/06/24 00:38:21;;;;;;;;;;;;;;;24.07;35.44;97468.72;4259971;27;5692;-64
2023/06/24 00:40:24;;;;;;;;;;;;;;;24.04;35.13;97471.94;4256753;27;5614;-64
2023/06/24 00:42:27;;;;;;;;;;;;;;;24.01;35.07;97475.16;4248318;27;5856;-64
2023/06/24 00:44:31;;;;;;;;;;;;;;;23.95;35.15;97473.50;4249007;27;5750;-63
2023/06/24 00:46:35;;;;;;;;;;;;;;;23.95;35.52;97468.94;4251377;27;5632;-63
2023/06/24 00:48:37;;;;;;;;;;;;;;;23.96;35.10;97462.44;4259952;27;5842;-64
2023/06/24 00:50:45;;;;;;;;;;;;;;;23.98;35.50;97472.97;4258846;27;5619;-64
2023/06/24 00:52:49;;;;;;;;;;;;;;;23.94;35.21;97470.00;4259935;27;5633;-64
2023/06/24 00:54:53;;;;;;;;;;;;;;;23.91;35.06;97467.03;4251243;27;5735;-65
2023/06/24 00:56:56;;;;;;;;;;;;;;;23.91;35.39;97462.44;4261156;27;5614;-68
2023/06/24 00:59:01;;;;;;;;;;;;;;;23.91;35.10;97461.63;4258327;27;5752;-69
2023/06/24 01:01:05;;;;;;;;;;;;;;;23.92;35.07;97463.25;4253574;27;5624;-69
2023/06/24 01:03:09;;;;;;;;;;;;;;;23.90;35.23;97462.66;4257090;27;5656;-69
2023/06/24 01:05:13;;;;;;;;;;;;;;;23.87;35.14;97461.31;4251327;27;5702;-68
2023/06/24 01:07:16;;;;;;;;;;;;;;;23.88;35.51;97462.13;4247185;27;5645;-68
2023/06/24 01:09:20;;;;;;;;;;;;;;;23.88;35.46;97462.13;4260385;27;6478;-69
2023/06/24 01:11:24;;;;;;;;;;;;;;;23.87;35.59;97455.91;4251216;27;5954;-69
2023/06/24 01:13:27;;;;;;;;;;;;;;;23.86;35.67;97458.88;4253178;27;6342;-69
2023/06/24 01:15:30;;;;;;;;;;;;;;;23.86;35.14;97461.56;4253420;27;5885;-73
2023/06/24 01:17:38;;;;;;;;;;;;;;;23.87;35.64;97460.50;4257692;27;5636;-72
2023/06/24 01:20:00;;;;;;;;;;;;;;;23.87;35.44;97460.50;4259638;27;5625;-67
2023/06/24 01:22:17;;;;;;;;;;;;;;;23.86;35.63;97454.28;4239180;27;6325;-67
2023/06/24 01:24:37;;;;;;;;;;;;;;;23.84;35.11;97455.63;4253235;27;5602;-67
2023/06/24 01:26:58;;;;;;;;;;;;;;;23.84;35.29;97455.63;4253903;27;5666;-66
2023/06/24 01:29:34;;;;;;;;;;;;;;;23.85;35.22;97454.56;4244836;27;5122;-66
2023/06/24 01:31:42;;;;;;;;;;;;;;;23.80;35.66;97453.47;4245085;27;5710;-66
2023/06/24 01:33:50;;;;;;;;;;;;;;;23.80;35.76;97453.47;4246304;27;5624;-66
2023/06/24 01:35:55;;;;;;;;;;;;;;;23.76;35.40;97455.03;4244741;27;5649;-68
2023/06/24 01:38:02;;;;;;;;;;;;;;;23.78;35.47;97452.91;4251497;27;5757;-68
2023/06/24 01:40:10;;;;;;;;;;;;;;;23.76;35.84;97459.63;4253078;27;5830;-68
2023/06/24 01:42:16;;;;;;;;;;;;;;;23.76;35.88;97451.53;4268483;27;5587;-68
2023/06/24 01:44:20;;;;;;;;;;;;;;;23.78;35.83;97452.91;4252925;27;5583;-66
2023/06/24 01:46:24;;;;;;;;;;;;;;;23.79;35.52;97451.84;4253897;27;5637;-66
2023/06/24 01:48:32;;;;;;;;;;;;;;;23.81;35.81;97449.69;4261055;27;5700;-66
2023/06/24 01:50:38;;;;;;;;;;;;;;;23.80;35.71;97453.47;4251641;27;5623;-70
2023/06/24 01:52:43;;;;;;;;;;;;;;;23.77;35.78;97456.66;4250410;27;5838;-70
2023/06/24 01:54:48;;;;;;;;;;;;;;;23.76;35.69;97455.03;4238255;27;5641;-70
2023/06/24 01:56:55;;;;;;;;;;;;;;;23.75;35.63;97458.00;4252752;27;5614;-68
2023/06/24 01:59:01;;;;;;;;;;;;;;;23.69;35.81;97459.88;4247175;27;5629;-70
2023/06/24 02:01:06;;;;;;;;;;;;;;;23.70;35.71;97455.28;4249627;27;5430;-69
2023/06/24 02:03:10;;;;;;;;;;;;;;;23.67;35.52;97459.34;4260655;27;5692;-67
2023/06/24 02:05:18;;;;;;;;;;;;;;;23.65;35.92;97461.44;4266552;27;5603;-67
2023/06/24 02:07:23;;;;;;;;;;;;;;;23.64;35.68;97454.44;4253648;27;5864;-69
2023/06/24 02:09:28;;;;;;;;;;;;;;;23.63;36.12;97458.22;4248227;27;5595;-70
2023/06/24 02:11:34;;;;;;;;;;;;;;;23.58;35.90;97458.19;4248727;27;5694;-70
2023/06/24 02:13:38;;;;;;;;;;;;;;;23.58;35.96;97458.19;4260927;27;5704;-70
2023/06/24 02:15:42;;;;;;;;;;;;;;;23.61;35.71;97457.66;4254098;27;5725;-70
2023/06/24 02:17:47;;;;;;;;;;;;;;;23.57;35.77;97451.13;4265595;27;5616;-70
2023/06/24 02:19:51;;;;;;;;;;;;;;;23.56;36.15;97457.63;4252418;27;5610;-70
2023/06/24 02:21:57;;;;;;;;;;;;;;;23.56;35.79;97454.91;4261679;27;5628;-70
2023/06/24 02:24:00;;;;;;;;;;;;;;;23.54;36.31;97433.56;4261733;27;6298;-70
2023/06/24 02:26:05;;;;;;;;;;;;;;;23.51;36.00;97450.28;4250141;27;5839;-64
2023/06/24 02:28:09;;;;;;;;;;;;;;;23.50;36.27;97440.56;4260072;27;5595;-64
2023/06/24 02:30:14;;;;;;;;;;;;;;;23.50;36.04;97439.75;4255408;27;5598;-64
2023/06/24 02:32:17;;;;;;;;;;;;;;;23.50;36.46;97427.06;4249164;27;5616;-64
2023/06/24 02:34:20;;;;;;;;;;;;;;;23.53;36.23;97441.91;4253669;27;5628;-64
2023/06/24 02:36:23;;;;;;;;;;;;;;;23.54;36.16;97430.03;4245543;27;5649;-64
2023/06/24 02:38:28;;;;;;;;;;;;;;;23.50;36.13;97437.06;4246560;27;5671;-65
2023/06/24 02:40:32;;;;;;;;;;;;;;;23.48;36.35;97431.09;4251412;27;5715;-65
2023/06/24 02:42:35;;;;;;;;;;;;;;;23.48;36.40;97436.50;4260583;27;5621;-66
2023/06/24 02:44:39;;;;;;;;;;;;;;;23.46;36.50;97427.84;4258502;27;6138;-65
2023/06/24 02:46:44;;;;;;;;;;;;;;;23.44;36.37;97435.38;4247659;27;5835;-66
2023/06/24 02:48:49;;;;;;;;;;;;;;;23.47;36.19;97429.47;4255105;27;5835;-66
2023/06/24 02:50:53;;;;;;;;;;;;;;;23.49;36.16;97433.53;4247676;27;5642;-68
2023/06/24 02:52:57;;;;;;;;;;;;;;;23.47;36.57;97432.19;4255792;27;5657;-68
2023/06/24 02:55:01;;;;;;;;;;;;;;;23.46;36.66;97433.25;4258783;27;5728;-69
2023/06/24 02:57:06;;;;;;;;;;;;;;;23.47;36.36;97430.28;4244849;27;5736;-67
2023/06/24 02:59:09;;;;;;;;;;;;;;;23.50;36.62;97424.38;4258000;27;5602;-68
2023/06/24 03:01:12;;;;;;;;;;;;;;;23.51;36.68;97419.78;4255471;27;6346;-68
2023/06/24 03:03:16;;;;;;;;;;;;;;;23.51;36.52;97422.47;4250581;27;5701;-68
2023/06/24 03:05:19;;;;;;;;;;;;;;;23.53;36.37;97434.63;4255122;27;5653;-68
2023/06/24 03:07:22;;;;;;;;;;;;;;;23.54;36.38;97419.25;4257446;27;5090;-68
2023/06/24 03:09:25;;;;;;;;;;;;;;;23.51;36.34;97422.47;4249841;27;5753;-68
2023/06/24 03:11:29;;;;;;;;;;;;;;;23.49;36.29;97427.34;4258990;27;5616;-68
2023/06/24 03:13:32;;;;;;;;;;;;;;;23.49;36.38;97430.03;4250070;27;5824;-69
2023/06/24 03:15:35;;;;;;;;;;;;;;;23.54;36.67;97435.44;4239506;27;5625;-69
2023/06/24 03:17:38;;;;;;;;;;;;;;;23.56;36.73;97438.72;4261800;27;5628;-68
2023/06/24 03:19:42;;;;;;;;;;;;;;;23.58;36.69;97433.06;4242652;27;6495;-69
2023/06/24 03:21:45;;;;;;;;;;;;;;;23.62;36.26;97432.28;4244327;27;5636;-70
2023/06/24 03:23:48;;;;;;;;;;;;;;;23.64;36.31;97434.72;4243135;27;5756;-70
2023/06/24 03:25:51;;;;;;;;;;;;;;;23.63;36.51;97444.72;4244342;27;5641;-70
2023/06/24 03:27:55;;;;;;;;;;;;;;;23.67;36.31;97445.00;4252919;27;5624;-69
2023/06/24 03:29:58;;;;;;;;;;;;;;;23.68;36.42;97452.03;4257547;27;5635;-69
2023/06/24 03:32:01;;;;;;;;;;;;;;;23.71;36.86;97449.63;4255778;27;5607;-69
2023/06/24 03:34:04;;;;;;;;;;;;;;;23.72;36.45;97450.44;4260994;27;5105;-69
2023/06/24 03:36:07;;;;;;;;;;;;;;;23.76;36.63;97451.53;4247654;27;6786;-69
2023/06/24 03:38:11;;;;;;;;;;;;;;;23.83;36.34;97445.91;4252484;27;5756;-69
2023/06/24 03:40:14;;;;;;;;;;;;;;;23.87;36.54;97450.50;4245884;27;5607;-69
2023/06/24 03:42:17;;;;;;;;;;;;;;;23.90;36.32;97454.56;4251204;27;6322;-69
2023/06/24 03:44:21;;;;;;;;;;;;;;;23.93;36.71;97448.66;4261534;27;5079;-68
2023/06/24 03:46:25;;;;;;;;;;;;;;;23.93;36.96;97438.69;4250990;27;6310;-69
2023/06/24 03:48:28;;;;;;;;;;;;;;;23.95;36.68;97451.91;4241786;27;5649;-69
2023/06/24 03:50:31;;;;;;;;;;;;;;;23.98;36.73;97445.97;4264780;27;5611;-69
2023/06/24 03:52:34;;;;;;;;;;;;;;;23.99;36.66;97444.91;4265684;27;5805;-67
2023/06/24 03:54:38;;;;;;;;;;;;;;;23.99;36.98;97444.91;4249063;27;5753;-68
2023/06/24 03:56:41;;;;;;;;;;;;;;;24.00;36.60;97444.63;4251035;27;5888;-67
2023/06/24 03:58:44;;;;;;;;;;;;;;;24.02;37.24;97439.00;4247655;27;5637;-67
2023/06/24 04:00:49;;;;;;;;;;;;;;;24.00;36.93;97441.13;4259083;27;5649;-67
2023/06/24 04:02:53;;;;;;;;;;;;;;;23.96;37.11;97445.44;4258984;27;5644;-68
2023/06/24 04:04:56;;;;;;;;;;;;;;;23.96;37.20;97442.72;4259348;27;5606;-67
2023/06/24 04:06:59;;;;;;;;;;;;;;;23.99;37.25;97450.31;4240609;27;5629;-67
2023/06/24 04:09:02;;;;;;;;;;;;;;;23.97;37.11;97436.25;4239518;27;5651;-69
2023/06/24 04:11:06;;;;;;;;;;;;;;;23.88;36.93;97448.63;4258253;27;5617;-67
2023/06/24 04:13:09;;;;;;;;;;;;;;;23.88;37.01;97441.34;4239543;27;5628;-67
2023/06/24 04:15:12;;;;;;;;;;;;;;;23.88;37.04;97440.53;4253334;27;5594;-66
2023/06/24 04:17:16;;;;;;;;;;;;;;;23.80;37.26;97445.38;4236038;27;5649;-67
2023/06/24 04:19:19;;;;;;;;;;;;;;;23.80;37.44;97445.38;4258047;27;5628;-67
2023/06/24 04:21:23;;;;;;;;;;;;;;;23.83;37.06;97452.13;4252177;27;5848;-66
2023/06/24 04:23:25;;;;;;;;;;;;;;;23.81;36.93;97447.00;4238928;27;5595;-67
2023/06/24 04:25:28;;;;;;;;;;;;;;;23.83;37.03;97444.03;4245185;27;5830;-67
2023/06/24 04:27:31;;;;;;;;;;;;;;;23.83;36.93;97448.63;4251653;27;5612;-70
2023/06/24 04:29:34;;;;;;;;;;;;;;;23.79;36.96;97446.44;4252455;27;5611;-69
2023/06/24 04:31:37;;;;;;;;;;;;;;;23.74;37.37;97441.00;4253605;27;5705;-67
2023/06/24 04:33:41;;;;;;;;;;;;;;;23.75;37.24;97437.22;4257015;27;5838;-68
2023/06/24 04:35:44;;;;;;;;;;;;;;;23.73;37.10;97439.38;4256379;27;5858;-70
2023/06/24 04:37:49;;;;;;;;;;;;;;;23.71;37.06;97435.31;4249136;27;5720;-68
2023/06/24 04:39:52;;;;;;;;;;;;;;;23.65;37.39;97442.56;4243716;27;5629;-68
2023/06/24 04:41:54;;;;;;;;;;;;;;;23.57;37.54;97432.25;4256525;27;5595;-69
2023/06/24 04:43:57;;;;;;;;;;;;;;;23.55;37.46;97434.38;4257751;27;5628;-68
2023/06/24 04:46:00;;;;;;;;;;;;;;;23.58;37.39;97436.59;4250332;27;5621;-70
2023/06/24 04:48:03;;;;;;;;;;;;;;;23.62;37.29;97443.09;4261242;27;5444;-69
2023/06/24 04:50:10;;;;;;;;;;;;;;;23.62;37.54;97432.28;4266024;27;5606;-69
2023/06/24 04:52:13;;;;;;;;;;;;;;;23.59;37.56;97440.09;4248342;27;5783;-73
2023/06/24 04:54:17;;;;;;;;;;;;;;;23.52;37.52;97434.91;4241719;27;5620;-65
2023/06/24 04:56:19;;;;;;;;;;;;;;;23.45;37.30;97439.72;4253011;27;5692;-67
2023/06/24 04:58:22;;;;;;;;;;;;;;;23.35;37.40;97448.56;4259497;27;5611;-67
2023/06/24 05:00:28;;;;;;;;;;;;;;;23.26;37.89;97433.91;4246951;27;5712;-72
2023/06/24 05:02:31;;;;;;;;;;;;;;;23.26;37.57;97443.91;4266297;27;5730;-71
2023/06/24 05:04:37;;;;;;;;;;;;;;;23.26;37.99;97454.69;4254018;27;5727;-71
2023/06/24 05:06:41;;;;;;;;;;;;;;;23.22;37.76;97455.22;4245816;27;5656;-72
2023/06/24 05:08:44;;;;;;;;;;;;;;;23.21;38.17;97450.84;4242633;27;6355;-71
2023/06/24 05:10:47;;;;;;;;;;;;;;;23.20;37.96;97456.50;4240637;27;5850;-71
2023/06/24 05:12:50;;;;;;;;;;;;;;;23.24;37.97;97457.66;4241726;27;5751;-70
2023/06/24 05:14:53;;;;;;;;;;;;;;;23.29;38.09;97459.56;4243471;27;5818;-71
2023/06/24 05:16:56;;;;;;;;;;;;;;;23.33;37.90;97466.06;4234798;27;5653;-71
2023/06/24 05:18:59;;;;;;;;;;;;;;;23.34;38.19;97467.72;4246674;27;5666;-71
2023/06/24 05:21:02;;;;;;;;;;;;;;;23.37;37.72;97457.19;4254824;27;5825;-71
2023/06/24 05:23:06;;;;;;;;;;;;;;;23.42;37.76;97453.72;4248402;27;5845;-71
2023/06/24 05:25:09;;;;;;;;;;;;;;;23.42;38.19;97459.13;4243787;27;5680;-71
2023/06/24 05:27:12;;;;;;;;;;;;;;;23.44;38.06;97462.34;4249947;27;5367;-71
2023/06/24 05:29:15;;;;;;;;;;;;;;;23.60;37.96;97452.53;4254483;27;5721;-70
2023/06/24 05:31:18;;;;;;;;;;;;;;;23.69;37.72;97461.78;4265584;27;5617;-70
2023/06/24 05:33:21;;;;;;;;;;;;;;;23.80;37.65;97469.66;4263227;27;5094;-71
2023/06/24 05:35:24;;;;;;;;;;;;;;;23.91;37.59;97472.44;4263396;27;5680;-70
2023/06/24 05:37:27;;;;;;;;;;;;;;;23.98;37.90;97472.97;4254775;27;5757;-71
2023/06/24 05:39:32;;;;;;;;;;;;;;;24.14;37.76;97480.09;4258926;27;5681;-71
2023/06/24 05:41:35;;;;;;;;;;;;;;;24.28;37.68;97466.91;4258121;27;5913;-71
2023/06/24 05:43:38;;;;;;;;;;;;;;;24.32;37.64;97468.84;4254694;27;5620;-71
2023/06/24 05:45:44;;;;;;;;;;;;;;;24.44;37.17;97470.50;4250071;27;5669;-71
2023/06/24 05:47:47;;;;;;;;;;;;;;;24.52;37.06;97472.69;4242929;27;5736;-71
2023/06/24 05:49:50;;;;;;;;;;;;;;;24.58;37.39;97463.53;4257875;27;5694;-70
2023/06/24 05:51:53;;;;;;;;;;;;;;;24.67;36.81;97464.63;4262342;27;5741;-71
2023/06/24 05:53:56;;;;;;;;;;;;;;;24.75;36.77;97469.50;4245593;27;5645;-71
2023/06/24 05:56:00;;;;;;;;;;;;;;;24.82;37.33;97464.66;4256097;27;5633;-71
2023/06/24 05:58:03;;;;;;;;;;;;;;;24.85;36.93;97466.03;4260687;27;5657;-71
2023/06/24 06:00:08;;;;;;;;;;;;;;;24.89;36.86;97473.31;4249999;27;5841;-77
2023/06/24 06:02:12;;;;;;;;;;;;;;;24.96;37.12;97478.47;4254573;27;5621;-76
2023/06/24 06:04:15;;;;;;;;;;;;;;;25.02;37.02;97473.91;4251157;27;5629;-77
2023/06/24 06:06:18;;;;;;;;;;;;;;;25.08;36.83;97478.25;4252179;27;5818;-79
2023/06/24 06:08:20;;;;;;;;;;;;;;;25.11;36.68;97470.38;4256472;27;5618;-66
2023/06/24 06:10:23;;;;;;;;;;;;;;;25.18;37.04;97472.84;4257871;27;5625;-75
2023/06/24 06:12:28;;;;;;;;;;;;;;;25.21;36.89;97473.09;4260057;27;5844;-69
2023/06/24 06:14:31;;;;;;;;;;;;;;;25.26;36.92;97469.59;4251583;27;5894;-69
2023/06/24 06:16:33;;;;;;;;;;;;;;;25.25;36.63;97471.47;4249975;27;5637;-68
2023/06/24 06:18:36;;;;;;;;;;;;;;;25.26;36.92;97461.50;4257809;27;5842;-68
2023/06/24 06:20:39;;;;;;;;;;;;;;;25.28;36.71;97467.44;4246144;27;5631;-67
2023/06/24 06:22:42;;;;;;;;;;;;;;;25.22;36.40;97474.72;4242179;27;5931;-66
2023/06/24 06:24:45;;;;;;;;;;;;;;;25.19;36.36;97458.22;4246360;27;5759;-64
2023/06/24 06:26:48;;;;;;;;;;;;;;;25.24;36.66;97458.22;4251367;27;5712;-64
2023/06/24 06:28:53;;;;;;;;;;;;;;;25.30;36.30;97461.75;4244680;27;5663;-65
2023/06/24 06:30:57;;;;;;;;;;;;;;;25.29;36.59;97455.53;4241351;27;5909;-65
2023/06/24 06:33:00;;;;;;;;;;;;;;;25.31;36.19;97447.13;4251981;27;5760;-65
2023/06/24 06:35:03;;;;;;;;;;;;;;;25.32;36.46;97451.47;4246170;27;5856;-63
2023/06/24 06:37:07;;;;;;;;;;;;;;;25.30;36.22;97454.44;4252293;27;5624;-64
2023/06/24 06:39:10;;;;;;;;;;;;;;;25.29;35.80;97439.28;4244316;27;5944;-63
2023/06/24 06:41:12;;;;;;;;;;;;;;;25.29;36.16;97444.69;4251088;27;5616;-64
2023/06/24 06:43:15;;;;;;;;;;;;;;;25.29;35.99;97444.69;4264264;27;5853;-64
2023/06/24 06:45:19;;;;;;;;;;;;;;;25.28;35.93;97437.66;4248219;27;5665;-63
2023/06/24 06:47:23;;;;;;;;;;;;;;;25.33;35.58;97432.25;4247225;27;6132;-64
2023/06/24 06:49:26;;;;;;;;;;;;;;;25.33;35.94;97439.53;4248992;27;5680;-63
2023/06/24 06:51:29;;;;;;;;;;;;;;;25.37;35.81;97430.63;4248253;27;7136;-64
2023/06/24 06:53:31;;;;;;;;;;;;;;;25.38;35.68;97432.25;4245305;27;5719;-68
2023/06/24 06:55:34;;;;;;;;;;;;;;;25.40;35.54;97446.31;4243488;27;5632;-67
2023/06/24 06:57:38;;;;;;;;;;;;;;;25.43;35.80;97431.41;4248384;27;5750;-68
2023/06/24 06:59:40;;;;;;;;;;;;;;;25.48;35.18;97425.97;4243691;27;5656;-67
2023/06/24 07:01:45;;;;;;;;;;;;;;;25.50;35.08;97427.34;4243162;27;5617;-68
2023/06/24 07:03:50;;;;;;;;;;;;;;;25.53;35.48;97412.47;4249358;27;5718;-68
2023/06/24 07:05:53;;;;;;;;;;;;;;;25.46;35.04;97428.97;4246170;27;7118;-68
2023/06/24 07:07:56;;;;;;;;;;;;;;;25.48;35.06;97420.56;4248793;27;5727;-69
2023/06/24 07:09:58;;;;;;;;;;;;;;;25.47;35.46;97422.47;4247313;27;5969;-69
2023/06/24 07:12:02;;;;;;;;;;;;;;;25.45;35.43;97430.06;4262067;27;5611;-68
2023/06/24 07:14:05;;;;;;;;;;;;;;;25.42;35.36;97430.59;4248683;27;5780;-77
2023/06/24 07:16:08;;;;;;;;;;;;;;;25.36;35.35;97434.38;4249329;27;5628;-78
2023/06/24 07:18:12;;;;;;;;;;;;;;;25.33;35.65;97426.00;4247196;27;5106;-78
2023/06/24 07:20:15;;;;;;;;;;;;;;;25.29;35.33;97436.59;4244223;27;5720;-78
2023/06/24 07:22:18;;;;;;;;;;;;;;;25.24;35.13;97423.03;4238829;27;5914;-77
2023/06/24 07:24:21;;;;;;;;;;;;;;;25.21;35.48;97421.69;4252176;27;5105;-64
2023/06/24 07:26:23;;;;;;;;;;;;;;;25.16;35.39;97413.59;4255657;27;5684;-63
2023/06/24 07:28:27;;;;;;;;;;;;;;;25.18;35.25;97414.13;4240056;27;5813;-64
2023/06/24 07:30:30;;;;;;;;;;;;;;;25.20;35.10;97408.44;4241949;27;5792;-63
2023/06/24 07:32:33;;;;;;;;;;;;;;;25.14;35.16;97410.34;4241524;27;5730;-65
2023/06/24 07:34:37;;;;;;;;;;;;;;;25.10;35.55;97409.25;4250017;27;5716;-65
2023/06/24 07:36:40;;;;;;;;;;;;;;;25.07;35.33;97417.09;4249116;27;8439;-65
2023/06/24 07:38:43;;;;;;;;;;;;;;;25.08;35.61;97410.63;4251193;27;5835;-65
2023/06/24 07:40:46;;;;;;;;;;;;;;;25.08;35.57;97408.72;4243645;27;5847;-65
2023/06/24 07:42:49;;;;;;;;;;;;;;;25.07;35.47;97406.28;4243079;27;6577;-65
2023/06/24 07:44:52;;;;;;;;;;;;;;;25.05;35.21;97405.75;4251065;27;5625;-68
2023/06/24 07:46:55;;;;;;;;;;;;;;;25.07;35.62;97403.59;4250775;27;5733;-68
2023/06/24 07:48:58;;;;;;;;;;;;;;;25.11;35.66;97404.66;4243285;27;5702;-68
2023/06/24 07:51:02;;;;;;;;;;;;;;;25.14;35.60;97404.09;4244337;27;5632;-68
2023/06/24 07:53:05;;;;;;;;;;;;;;;25.18;35.22;97394.38;4251194;27;5728;-68
2023/06/24 07:55:09;;;;;;;;;;;;;;;25.18;35.37;97391.69;4249936;27;5829;-68
2023/06/24 07:57:11;;;;;;;;;;;;;;;25.20;35.33;97389.50;4243422;27;5796;-68
2023/06/24 07:59:14;;;;;;;;;;;;;;;25.21;35.28;97383.00;4251289;27;6177;-70
2023/06/24 08:01:17;;;;;;;;;;;;;;;25.20;35.63;97382.19;4250896;27;5644;-68
2023/06/24 08:03:21;;;;;;;;;;;;;;;25.22;35.52;97390.03;4258142;27;5678;-68
2023/06/24 08:05:24;;;;;;;;;;;;;;;25.27;35.45;97381.13;4246946;27;5726;-68
2023/06/24 08:07:29;;;;;;;;;;;;;;;25.29;35.11;97392.47;4244761;27;5633;-68
2023/06/24 08:09:32;;;;;;;;;;;;;;;25.26;35.37;97380.31;4250280;27;5613;-68
2023/06/24 08:11:35;;;;;;;;;;;;;;;25.23;35.59;97386.25;4250627;27;5735;-69
2023/06/24 08:13:38;;;;;;;;;;;;;;;25.22;35.75;97379.22;4265932;27;5123;-69
2023/06/24 08:15:41;;;;;;;;;;;;;;;25.23;35.68;97375.41;4251505;27;5637;-68
2023/06/24 08:17:44;;;;;;;;;;;;;;;25.25;35.39;97375.94;4250570;27;5636;-69
2023/06/24 08:19:47;;;;;;;;;;;;;;;25.26;35.63;97369.47;4250529;27;5712;-68
2023/06/24 08:21:50;;;;;;;;;;;;;;;25.23;35.24;97360.00;4242145;27;5620;-68
2023/06/24 08:23:58;;;;;;;;;;;;;;;25.21;35.43;97361.34;4250234;27;5704;-69
2023/06/24 08:26:00;;;;;;;;;;;;;;;25.27;35.50;97364.88;4250210;27;5724;-70
2023/06/24 08:28:19;;;;;;;;;;;;;;;25.25;35.69;97360.53;4250362;27;5720;-69
2023/06/24 08:30:22;;;;;;;;;;;;;;;25.27;35.05;97381.94;4250260;27;5712;-68
2023/06/24 08:32:24;;;;;;;;;;;;;;;25.25;35.23;97363.22;4255088;27;7386;-69
2023/06/24 08:34:27;;;;;;;;;;;;;;;25.23;35.45;97359.19;4249708;27;5624;-69
2023/06/24 08:36:30;;;;;;;;;;;;;;;25.22;35.42;97349.44;4248793;27;5815;-69
2023/06/24 08:38:33;;;;;;;;;;;;;;;25.29;35.44;97362.72;4249409;27;5699;-69
2023/06/24 08:40:39;;;;;;;;;;;;;;;25.31;35.41;97358.63;4250087;27;5719;-69
2023/06/24 08:42:44;;;;;;;;;;;;;;;25.36;35.56;97353.19;4246049;27;5636;-68
2023/06/24 08:44:47;;;;;;;;;;;;;;;25.42;35.64;97356.72;4254931;27;5856;-68
2023/06/24 08:46:50;;;;;;;;;;;;;;;25.45;35.74;97354.25;4258558;27;5682;-68
2023/06/24 08:49:00;;;;;;;;;;;;;;;25.49;35.79;97357.25;4253671;27;5617;-68
2023/06/24 08:51:04;;;;;;;;;;;;;;;25.51;35.68;97361.31;4257114;27;5603;-68
2023/06/24 08:53:09;;;;;;;;;;;;;;;25.54;35.37;97357.22;4252909;27;5726;-69
2023/06/24 08:55:14;;;;;;;;;;;;;;;25.52;35.61;97365.63;4241859;27;5621;-68
2023/06/24 08:57:19;;;;;;;;;;;;;;;25.54;35.27;97358.03;4245568;27;7791;-68
2023/06/24 08:59:22;;;;;;;;;;;;;;;25.56;35.69;97368.59;4258654;27;5609;-64
2023/06/24 09:01:28;;;;;;;;;;;;;;;25.54;35.67;97362.66;4249851;27;5843;-66
2023/06/24 09:03:31;;;;;;;;;;;;;;;25.58;35.26;97350.16;4264730;27;5694;-65
2023/06/24 09:05:35;;;;;;;;;;;;;;;25.62;35.29;97361.28;4251084;27;5605;-69
2023/06/24 09:07:38;;;;;;;;;;;;;;;25.62;35.59;97355.88;4258599;27;7683;-69
2023/06/24 09:09:45;;;;;;;;;;;;;;;25.62;35.25;97362.09;4250137;27;7146;-70
2023/06/24 09:11:54;;;;;;;;;;;;;;;25.65;35.07;97360.72;4258657;27;5710;-70
2023/06/24 09:13:59;;;;;;;;;;;;;;;25.66;35.50;97341.47;4240985;27;5652;-68
2023/06/24 09:16:14;;;;;;;;;;;;;;;25.68;35.45;97338.50;4243576;27;5238;-68
2023/06/24 09:18:17;;;;;;;;;;;;;;;25.69;35.41;97346.38;4254194;27;5713;-70
2023/06/24 09:20:22;;;;;;;;;;;;;;;25.73;35.30;97346.66;4253424;27;5724;-70
2023/06/24 09:22:30;;;;;;;;;;;;;;;25.77;35.15;97348.50;4249468;27;5730;-69
2023/06/24 09:24:34;;;;;;;;;;;;;;;25.82;35.20;97351.22;4258432;27;5817;-70
2023/06/24 09:26:36;;;;;;;;;;;;;;;25.85;34.91;97349.84;4249802;27;5832;-70
2023/06/24 09:28:39;;;;;;;;;;;;;;;25.87;34.89;97342.25;4257354;27;5713;-67
2023/06/24 09:30:44;;;;;;;;;;;;;;;25.90;34.91;97328.13;4252022;27;5603;-67
2023/06/24 09:32:47;;;;;;;;;;;;;;;25.95;34.48;97344.38;4249789;27;5633;-67
2023/06/24 09:34:50;;;;;;;;;;;;;;;25.99;34.60;97328.38;4244970;27;5653;-68
2023/06/24 09:36:54;;;;;;;;;;;;;;;26.02;34.68;97334.03;4250021;27;5934;-68
2023/06/24 09:39:06;;;;;;;;;;;;;;;26.04;34.52;97322.91;4257861;27;7695;-68
2023/06/24 09:41:19;;;;;;;;;;;;;;;26.10;34.37;97330.75;4254691;27;5748;-68
2023/06/24 09:43:22;;;;;;;;;;;;;;;26.14;34.18;97328.28;4249396;27;5642;-67
2023/06/24 09:45:27;;;;;;;;;;;;;;;26.17;34.39;97335.88;4249351;27;5909;-69
2023/06/24 09:47:32;;;;;;;;;;;;;;;26.20;34.43;97334.50;4249535;27;5857;-67
2023/06/24 09:49:34;;;;;;;;;;;;;;;26.17;34.30;97332.34;4249650;27;5624;-64
2023/06/24 09:51:39;;;;;;;;;;;;;;;26.15;34.48;97323.66;4256633;27;5701;-64
2023/06/24 09:53:45;;;;;;;;;;;;;;;26.16;34.62;97330.69;4242716;27;5725;-65
2023/06/24 09:55:48;;;;;;;;;;;;;;;26.17;34.15;97337.78;4257924;27;5595;-66
2023/06/24 09:57:52;;;;;;;;;;;;;;;26.18;34.08;97309.56;4250176;27;5688;-67
2023/06/24 09:59:55;;;;;;;;;;;;;;;26.21;33.96;97326.06;4249527;27;5716;-67
2023/06/24 10:01:59;;;;;;;;;;;;;;;26.26;34.13;97330.66;4244435;27;5748;-67
2023/06/24 10:04:05;;;;;;;;;;;;;;;26.29;34.10;97332.81;4247904;27;5700;-68
2023/06/24 10:06:09;;;;;;;;;;;;;;;26.32;33.96;97315.97;4251908;27;6282;-68
2023/06/24 10:08:14;;;;;;;;;;;;;;;26.37;34.07;97324.09;4257673;27;5599;-69
2023/06/24 10:10:20;;;;;;;;;;;;;;;26.42;34.18;97312.44;4246080;27;5806;-68
2023/06/24 10:12:26;;;;;;;;;;;;;;;26.42;34.27;97320.56;4246304;27;5635;-71
2023/06/24 10:14:29;;;;;;;;;;;;;;;26.46;33.91;97316.19;4254795;27;5212;-67
2023/06/24 10:16:32;;;;;;;;;;;;;;;26.45;34.24;97312.66;4251471;27;5608;-64
2023/06/24 10:18:37;;;;;;;;;;;;;;;26.46;34.08;97335.97;4256563;27;5849;-66
2023/06/24 10:20:41;;;;;;;;;;;;;;;26.47;33.91;97304.25;4241051;27;5632;-66
2023/06/24 10:22:47;;;;;;;;;;;;;;;26.51;33.79;97318.88;4241386;27;5640;-66
2023/06/24 10:24:52;;;;;;;;;;;;;;;26.54;33.94;97318.31;4246716;27;5624;-66
2023/06/24 10:26:55;;;;;;;;;;;;;;;26.54;34.00;97324.53;4254807;27;5639;-67
2023/06/24 10:29:17;;;;;;;;;;;;;;;26.55;34.05;97314.50;4262002;27;5641;-68
2023/06/24 10:31:20;;;;;;;;;;;;;;;26.57;33.80;97307.69;4257128;27;5625;-69
2023/06/24 10:33:25;;;;;;;;;;;;;;;26.62;33.97;97307.66;4253116;27;5620;-69
2023/06/24 10:35:31;;;;;;;;;;;;;;;26.66;33.68;97311.41;4259888;27;5846;-69
2023/06/24 10:37:36;;;;;;;;;;;;;;;26.68;33.79;97306.50;4251006;27;5185;-70
2023/06/24 10:39:50;;;;;;;;;;;;;;;26.73;33.65;97304.84;4253712;27;5668;-70
2023/06/24 10:41:55;;;;;;;;;;;;;;;26.77;33.60;97300.47;4246154;27;5727;-69
2023/06/24 10:43:59;;;;;;;;;;;;;;;26.77;34.10;97301.28;4259025;27;5636;-70
2023/06/24 10:46:02;;;;;;;;;;;;;;;26.83;33.96;97299.31;4244765;27;5700;-70
2023/06/24 10:48:06;;;;;;;;;;;;;;;26.86;33.88;97290.63;4255959;27;5747;-70
2023/06/24 10:50:10;;;;;;;;;;;;;;;26.86;33.88;97296.06;4261821;27;5629;-69
2023/06/24 10:52:14;;;;;;;;;;;;;;;26.85;33.73;97281.69;4256897;27;5709;-69
2023/06/24 10:54:18;;;;;;;;;;;;;;;26.88;33.64;97296.59;4257819;27;5772;-69
2023/06/24 10:56:21;;;;;;;;;;;;;;;26.88;33.56;97291.97;4249437;27;5735;-69